sensor_id;sensor_type;location;lat;lon;timestamp;temperature;humidity
41142;SHT31;63666;52.284;20.890;2024-03-22T00:01:33;20.80;44.08
41142;SHT31;63666;52.284;20.890;2024-03-22T00:03:21;20.79;44.01
41142;SHT31;63666;52.284;20.890;2024-03-22T00:05:09;20.76;44.09
41142;SHT31;63666;52.284;20.890;2024-03-22T00:06:54;20.74;44.12
41142;SHT31;63666;52.284;20.890;2024-03-22T00:08:38;20.75;44.11
41142;SHT31;63666;52.284;20.890;2024-03-22T00:10:23;20.74;44.10
41142;SHT31;63666;52.284;20.890;2024-03-22T00:12:10;20.72;44.16
41142;SHT31;63666;52.284;20.890;2024-03-22T00:13:58;20.71;44.11
41142;SHT31;63666;52.284;20.890;2024-03-22T00:15:43;20.71;44.13
41142;SHT31;63666;52.284;20.890;2024-03-22T00:17:28;20.71;44.17
41142;SHT31;63666;52.284;20.890;2024-03-22T00:19:16;20.74;44.11
41142;SHT31;63666;52.284;20.890;2024-03-22T00:21:03;20.72;44.24
41142;SHT31;63666;52.284;20.890;2024-03-22T00:22:48;20.70;44.27
41142;SHT31;63666;52.284;20.890;2024-03-22T00:24:33;20.69;44.27
41142;SHT31;63666;52.284;20.890;2024-03-22T00:26:17;20.70;44.27
41142;SHT31;63666;52.284;20.890;2024-03-22T00:28:02;20.70;44.31
41142;SHT31;63666;52.284;20.890;2024-03-22T00:29:47;20.68;44.37
41142;SHT31;63666;52.284;20.890;2024-03-22T00:31:31;20.68;44.31
41142;SHT31;63666;52.284;20.890;2024-03-22T00:33:16;20.66;44.30
41142;SHT31;63666;52.284;20.890;2024-03-22T00:35:03;20.66;44.30
41142;SHT31;63666;52.284;20.890;2024-03-22T00:36:48;20.64;44.30
41142;SHT31;63666;52.284;20.890;2024-03-22T00:38:36;20.63;44.33
41142;SHT31;63666;52.284;20.890;2024-03-22T00:40:21;20.63;44.32
41142;SHT31;63666;52.284;20.890;2024-03-22T00:42:05;20.62;44.36
41142;SHT31;63666;52.284;20.890;2024-03-22T00:43:50;20.62;44.37
41142;SHT31;63666;52.284;20.890;2024-03-22T00:45:35;20.61;44.36
41142;SHT31;63666;52.284;20.890;2024-03-22T00:47:20;20.64;44.30
41142;SHT31;63666;52.284;20.890;2024-03-22T00:49:05;20.63;44.31
41142;SHT31;63666;52.284;20.890;2024-03-22T00:50:56;20.62;44.30
41142;SHT31;63666;52.284;20.890;2024-03-22T00:52:40;20.58;44.38
41142;SHT31;63666;52.284;20.890;2024-03-22T00:54:25;20.60;44.34
41142;SHT31;63666;52.284;20.890;2024-03-22T00:56:15;20.58;44.37
41142;SHT31;63666;52.284;20.890;2024-03-22T00:58:09;20.57;44.40
41142;SHT31;63666;52.284;20.890;2024-03-22T00:59:56;20.57;44.41
41142;SHT31;63666;52.284;20.890;2024-03-22T01:01:43;20.56;44.41
41142;SHT31;63666;52.284;20.890;2024-03-22T01:03:35;20.56;44.44
41142;SHT31;63666;52.284;20.890;2024-03-22T01:05:20;20.56;44.40
41142;SHT31;63666;52.284;20.890;2024-03-22T01:07:06;20.57;44.40
41142;SHT31;63666;52.284;20.890;2024-03-22T01:08:56;20.56;44.37
41142;SHT31;63666;52.284;20.890;2024-03-22T01:10:41;20.53;44.45
41142;SHT31;63666;52.284;20.890;2024-03-22T01:12:26;20.55;44.40
41142;SHT31;63666;52.284;20.890;2024-03-22T01:14:11;20.53;44.45
41142;SHT31;63666;52.284;20.890;2024-03-22T01:15:59;20.51;44.46
41142;SHT31;63666;52.284;20.890;2024-03-22T01:17:44;20.52;44.47
41142;SHT31;63666;52.284;20.890;2024-03-22T01:19:28;20.52;44.49
41142;SHT31;63666;52.284;20.890;2024-03-22T01:21:13;20.51;44.48
41142;SHT31;63666;52.284;20.890;2024-03-22T01:23:04;20.51;44.47
41142;SHT31;63666;52.284;20.890;2024-03-22T01:24:48;20.50;44.46
41142;SHT31;63666;52.284;20.890;2024-03-22T01:26:33;20.48;44.48
41142;SHT31;63666;52.284;20.890;2024-03-22T01:28:17;20.50;44.44
41142;SHT31;63666;52.284;20.890;2024-03-22T01:30:04;20.49;44.48
41142;SHT31;63666;52.284;20.890;2024-03-22T01:31:51;20.49;44.46
41142;SHT31;63666;52.284;20.890;2024-03-22T01:33:36;20.47;44.48
41142;SHT31;63666;52.284;20.890;2024-03-22T01:35:23;20.49;44.46
41142;SHT31;63666;52.284;20.890;2024-03-22T01:37:07;20.49;44.50
41142;SHT31;63666;52.284;20.890;2024-03-22T01:39:00;20.49;44.47
41142;SHT31;63666;52.284;20.890;2024-03-22T01:40:47;20.48;44.50
41142;SHT31;63666;52.284;20.890;2024-03-22T01:42:35;20.48;44.50
41142;SHT31;63666;52.284;20.890;2024-03-22T01:44:27;20.48;44.56
41142;SHT31;63666;52.284;20.890;2024-03-22T01:46:13;20.45;44.59
41142;SHT31;63666;52.284;20.890;2024-03-22T01:47:59;20.43;44.57
41142;SHT31;63666;52.284;20.890;2024-03-22T01:49:45;20.44;44.60
41142;SHT31;63666;52.284;20.890;2024-03-22T01:51:32;20.43;44.59
41142;SHT31;63666;52.284;20.890;2024-03-22T01:53:19;20.44;44.57
41142;SHT31;63666;52.284;20.890;2024-03-22T01:55:08;20.44;44.57
41142;SHT31;63666;52.284;20.890;2024-03-22T01:57:01;20.43;44.57
41142;SHT31;63666;52.284;20.890;2024-03-22T01:58:49;20.42;44.57
41142;SHT31;63666;52.284;20.890;2024-03-22T02:00:38;20.41;44.60
41142;SHT31;63666;52.284;20.890;2024-03-22T02:02:23;20.41;44.65
41142;SHT31;63666;52.284;20.890;2024-03-22T02:04:07;20.41;44.60
41142;SHT31;63666;52.284;20.890;2024-03-22T02:05:55;20.41;44.63
41142;SHT31;63666;52.284;20.890;2024-03-22T02:07:40;20.39;44.60
41142;SHT31;63666;52.284;20.890;2024-03-22T02:09:27;20.41;44.60
41142;SHT31;63666;52.284;20.890;2024-03-22T02:11:17;20.41;44.61
41142;SHT31;63666;52.284;20.890;2024-03-22T02:13:02;20.40;44.63
41142;SHT31;63666;52.284;20.890;2024-03-22T02:14:48;20.40;44.66
41142;SHT31;63666;52.284;20.890;2024-03-22T02:16:43;20.38;44.70
41142;SHT31;63666;52.284;20.890;2024-03-22T02:18:28;20.40;44.64
41142;SHT31;63666;52.284;20.890;2024-03-22T02:20:15;20.38;44.69
41142;SHT31;63666;52.284;20.890;2024-03-22T02:22:00;20.36;44.70
41142;SHT31;63666;52.284;20.890;2024-03-22T02:23:45;20.37;44.70
41142;SHT31;63666;52.284;20.890;2024-03-22T02:25:32;20.38;44.70
41142;SHT31;63666;52.284;20.890;2024-03-22T02:27:17;20.38;44.70
41142;SHT31;63666;52.284;20.890;2024-03-22T02:29:02;20.35;44.81
41142;SHT31;63666;52.284;20.890;2024-03-22T02:30:54;20.34;44.83
41142;SHT31;63666;52.284;20.890;2024-03-22T02:32:46;20.35;44.77
41142;SHT31;63666;52.284;20.890;2024-03-22T02:34:31;20.33;44.85
41142;SHT31;63666;52.284;20.890;2024-03-22T02:36:34;20.33;44.83
41142;SHT31;63666;52.284;20.890;2024-03-22T02:38:22;20.34;44.80
41142;SHT31;63666;52.284;20.890;2024-03-22T02:40:08;20.34;44.80
41142;SHT31;63666;52.284;20.890;2024-03-22T02:41:54;20.33;44.84
41142;SHT31;63666;52.284;20.890;2024-03-22T02:43:42;20.32;44.87
41142;SHT31;63666;52.284;20.890;2024-03-22T02:45:29;20.32;44.87
41142;SHT31;63666;52.284;20.890;2024-03-22T02:47:15;20.33;44.82
41142;SHT31;63666;52.284;20.890;2024-03-22T02:49:04;20.34;44.77
41142;SHT31;63666;52.284;20.890;2024-03-22T02:50:48;20.33;44.80
41142;SHT31;63666;52.284;20.890;2024-03-22T02:52:38;20.33;44.86
41142;SHT31;63666;52.284;20.890;2024-03-22T02:54:24;20.30;44.80
41142;SHT31;63666;52.284;20.890;2024-03-22T02:56:12;20.28;44.89
41142;SHT31;63666;52.284;20.890;2024-03-22T02:57:59;20.29;44.84
41142;SHT31;63666;52.284;20.890;2024-03-22T02:59:44;20.29;44.98
41142;SHT31;63666;52.284;20.890;2024-03-22T03:01:28;20.29;45.13
41142;SHT31;63666;52.284;20.890;2024-03-22T03:03:13;20.30;45.20
41142;SHT31;63666;52.284;20.890;2024-03-22T03:05:03;20.28;45.20
41142;SHT31;63666;52.284;20.890;2024-03-22T03:06:50;20.27;45.16
41142;SHT31;63666;52.284;20.890;2024-03-22T03:08:34;20.27;45.22
41142;SHT31;63666;52.284;20.890;2024-03-22T03:10:22;20.27;45.26
41142;SHT31;63666;52.284;20.890;2024-03-22T03:12:08;20.26;45.27
41142;SHT31;63666;52.284;20.890;2024-03-22T03:13:52;20.28;45.31
41142;SHT31;63666;52.284;20.890;2024-03-22T03:15:37;20.29;45.23
41142;SHT31;63666;52.284;20.890;2024-03-22T03:17:24;20.30;45.30
41142;SHT31;63666;52.284;20.890;2024-03-22T03:19:14;20.27;45.40
41142;SHT31;63666;52.284;20.890;2024-03-22T03:21:04;20.27;45.40
41142;SHT31;63666;52.284;20.890;2024-03-22T03:22:51;20.26;45.44
41142;SHT31;63666;52.284;20.890;2024-03-22T03:24:39;20.25;45.41
41142;SHT31;63666;52.284;20.890;2024-03-22T03:26:24;20.27;45.45
41142;SHT31;63666;52.284;20.890;2024-03-22T03:28:13;20.25;45.49
41142;SHT31;63666;52.284;20.890;2024-03-22T03:29:58;20.26;45.45
41142;SHT31;63666;52.284;20.890;2024-03-22T03:31:45;20.27;45.44
41142;SHT31;63666;52.284;20.890;2024-03-22T03:33:30;20.27;45.42
41142;SHT31;63666;52.284;20.890;2024-03-22T03:35:15;20.24;45.53
41142;SHT31;63666;52.284;20.890;2024-03-22T03:37:00;20.23;45.58
41142;SHT31;63666;52.284;20.890;2024-03-22T03:38:45;20.24;45.51
41142;SHT31;63666;52.284;20.890;2024-03-22T03:40:30;20.24;45.32
41142;SHT31;63666;52.284;20.890;2024-03-22T03:42:21;20.24;45.40
41142;SHT31;63666;52.284;20.890;2024-03-22T03:44:11;20.22;45.51
41142;SHT31;63666;52.284;20.890;2024-03-22T03:45:56;20.21;45.45
41142;SHT31;63666;52.284;20.890;2024-03-22T03:47:46;20.21;45.63
41142;SHT31;63666;52.284;20.890;2024-03-22T03:49:30;20.20;45.77
41142;SHT31;63666;52.284;20.890;2024-03-22T03:51:20;20.21;45.71
41142;SHT31;63666;52.284;20.890;2024-03-22T03:53:05;20.21;45.64
41142;SHT31;63666;52.284;20.890;2024-03-22T03:54:52;20.21;45.47
41142;SHT31;63666;52.284;20.890;2024-03-22T03:56:42;20.19;45.51
41142;SHT31;63666;52.284;20.890;2024-03-22T03:58:32;20.19;45.60
41142;SHT31;63666;52.284;20.890;2024-03-22T04:00:22;20.20;45.59
41142;SHT31;63666;52.284;20.890;2024-03-22T04:02:06;20.17;45.63
41142;SHT31;63666;52.284;20.890;2024-03-22T04:03:51;20.16;45.72
41142;SHT31;63666;52.284;20.890;2024-03-22T04:05:36;20.18;45.73
41142;SHT31;63666;52.284;20.890;2024-03-22T04:07:23;20.18;45.71
41142;SHT31;63666;52.284;20.890;2024-03-22T04:09:10;20.20;45.69
41142;SHT31;63666;52.284;20.890;2024-03-22T04:10:55;20.18;45.60
41142;SHT31;63666;52.284;20.890;2024-03-22T04:12:40;20.20;45.60
41142;SHT31;63666;52.284;20.890;2024-03-22T04:14:31;20.22;45.71
41142;SHT31;63666;52.284;20.890;2024-03-22T04:16:16;20.19;45.75
41142;SHT31;63666;52.284;20.890;2024-03-22T04:18:05;20.22;45.80
41142;SHT31;63666;52.284;20.890;2024-03-22T04:19:55;20.22;45.80
41142;SHT31;63666;52.284;20.890;2024-03-22T04:21:43;20.20;45.86
41142;SHT31;63666;52.284;20.890;2024-03-22T04:23:30;20.17;45.89
41142;SHT31;63666;52.284;20.890;2024-03-22T04:25:17;20.16;45.94
41142;SHT31;63666;52.284;20.890;2024-03-22T04:27:06;20.15;46.01
41142;SHT31;63666;52.284;20.890;2024-03-22T04:28:54;20.16;46.03
41142;SHT31;63666;52.284;20.890;2024-03-22T04:30:41;20.15;45.97
41142;SHT31;63666;52.284;20.890;2024-03-22T04:32:30;20.14;46.00
41142;SHT31;63666;52.284;20.890;2024-03-22T04:34:15;20.15;45.99
41142;SHT31;63666;52.284;20.890;2024-03-22T04:36:03;20.17;45.97
41142;SHT31;63666;52.284;20.890;2024-03-22T04:37:50;20.16;45.87
41142;SHT31;63666;52.284;20.890;2024-03-22T04:39:37;20.15;45.83
41142;SHT31;63666;52.284;20.890;2024-03-22T04:41:22;20.14;45.81
41142;SHT31;63666;52.284;20.890;2024-03-22T04:43:13;20.15;45.81
41142;SHT31;63666;52.284;20.890;2024-03-22T04:44:59;20.15;45.80
41142;SHT31;63666;52.284;20.890;2024-03-22T04:46:48;20.13;45.94
41142;SHT31;63666;52.284;20.890;2024-03-22T04:48:35;20.13;45.99
41142;SHT31;63666;52.284;20.890;2024-03-22T04:50:22;20.13;45.99
41142;SHT31;63666;52.284;20.890;2024-03-22T04:52:11;20.12;46.03
41142;SHT31;63666;52.284;20.890;2024-03-22T04:54:01;20.15;45.91
41142;SHT31;63666;52.284;20.890;2024-03-22T04:55:46;20.15;45.85
41142;SHT31;63666;52.284;20.890;2024-03-22T04:57:34;20.18;45.81
41142;SHT31;63666;52.284;20.890;2024-03-22T04:59:25;20.22;45.74
41142;SHT31;63666;52.284;20.890;2024-03-22T05:01:10;20.26;45.70
41142;SHT31;63666;52.284;20.890;2024-03-22T05:02:57;20.32;45.59
41142;SHT31;63666;52.284;20.890;2024-03-22T05:04:45;20.37;45.50
41142;SHT31;63666;52.284;20.890;2024-03-22T05:06:30;20.44;45.34
41142;SHT31;63666;52.284;20.890;2024-03-22T05:08:15;20.50;45.18
41142;SHT31;63666;52.284;20.890;2024-03-22T05:10:00;20.54;45.16
41142;SHT31;63666;52.284;20.890;2024-03-22T05:11:46;20.59;45.05
41142;SHT31;63666;52.284;20.890;2024-03-22T05:13:39;20.62;44.90
41142;SHT31;63666;52.284;20.890;2024-03-22T05:15:30;20.66;44.80
41142;SHT31;63666;52.284;20.890;2024-03-22T05:17:19;20.72;44.71
41142;SHT31;63666;52.284;20.890;2024-03-22T05:19:03;20.77;44.61
41142;SHT31;63666;52.284;20.890;2024-03-22T05:20:51;20.81;44.51
41142;SHT31;63666;52.284;20.890;2024-03-22T05:22:36;20.85;44.45
41142;SHT31;63666;52.284;20.890;2024-03-22T05:24:22;20.90;44.43
41142;SHT31;63666;52.284;20.890;2024-03-22T05:26:08;20.92;44.39
41142;SHT31;63666;52.284;20.890;2024-03-22T05:27:53;20.98;44.32
41142;SHT31;63666;52.284;20.890;2024-03-22T05:29:38;21.02;44.26
41142;SHT31;63666;52.284;20.890;2024-03-22T05:31:33;21.05;44.23
41142;SHT31;63666;52.284;20.890;2024-03-22T05:33:34;21.09;44.20
41142;SHT31;63666;52.284;20.890;2024-03-22T05:35:21;21.12;44.13
41142;SHT31;63666;52.284;20.890;2024-03-22T05:37:08;21.15;44.11
41142;SHT31;63666;52.284;20.890;2024-03-22T05:38:53;21.17;44.12
41142;SHT31;63666;52.284;20.890;2024-03-22T05:40:44;21.20;44.07
41142;SHT31;63666;52.284;20.890;2024-03-22T05:42:29;21.24;44.06
41142;SHT31;63666;52.284;20.890;2024-03-22T05:44:17;21.27;44.00
41142;SHT31;63666;52.284;20.890;2024-03-22T05:46:02;21.27;44.02
41142;SHT31;63666;52.284;20.890;2024-03-22T05:47:47;21.31;44.00
41142;SHT31;63666;52.284;20.890;2024-03-22T05:49:34;21.32;43.97
41142;SHT31;63666;52.284;20.890;2024-03-22T05:51:22;21.35;43.91
41142;SHT31;63666;52.284;20.890;2024-03-22T05:53:12;21.37;43.90
41142;SHT31;63666;52.284;20.890;2024-03-22T05:55:02;21.39;43.87
41142;SHT31;63666;52.284;20.890;2024-03-22T05:56:48;21.40;43.84
41142;SHT31;63666;52.284;20.890;2024-03-22T05:58:35;21.42;43.86
41142;SHT31;63666;52.284;20.890;2024-03-22T06:00:24;21.44;43.78
41142;SHT31;63666;52.284;20.890;2024-03-22T06:02:13;21.47;43.76
41142;SHT31;63666;52.284;20.890;2024-03-22T06:04:01;21.48;43.75
41142;SHT31;63666;52.284;20.890;2024-03-22T06:05:46;21.49;43.71
41142;SHT31;63666;52.284;20.890;2024-03-22T06:07:35;21.52;43.71
41142;SHT31;63666;52.284;20.890;2024-03-22T06:09:26;21.52;43.70
41142;SHT31;63666;52.284;20.890;2024-03-22T06:11:17;21.53;43.70
41142;SHT31;63666;52.284;20.890;2024-03-22T06:13:02;21.56;43.65
41142;SHT31;63666;52.284;20.890;2024-03-22T06:14:49;21.56;43.61
41142;SHT31;63666;52.284;20.890;2024-03-22T06:16:33;21.59;43.60
41142;SHT31;63666;52.284;20.890;2024-03-22T06:18:18;21.59;43.60
41142;SHT31;63666;52.284;20.890;2024-03-22T06:20:03;21.59;43.62
41142;SHT31;63666;52.284;20.890;2024-03-22T06:21:52;21.59;43.63
41142;SHT31;63666;52.284;20.890;2024-03-22T06:23:42;21.62;43.56
41142;SHT31;63666;52.284;20.890;2024-03-22T06:25:32;21.66;43.51
41142;SHT31;63666;52.284;20.890;2024-03-22T06:27:16;21.69;43.47
41142;SHT31;63666;52.284;20.890;2024-03-22T06:29:04;21.70;43.53
41142;SHT31;63666;52.284;20.890;2024-03-22T06:30:48;21.71;43.57
41142;SHT31;63666;52.284;20.890;2024-03-22T06:32:35;21.72;43.49
41142;SHT31;63666;52.284;20.890;2024-03-22T06:34:25;21.73;43.50
41142;SHT31;63666;52.284;20.890;2024-03-22T06:36:10;21.76;43.46
41142;SHT31;63666;52.284;20.890;2024-03-22T06:37:57;21.74;43.53
41142;SHT31;63666;52.284;20.890;2024-03-22T06:39:42;21.79;43.50
41142;SHT31;63666;52.284;20.890;2024-03-22T06:41:27;21.81;43.50
41142;SHT31;63666;52.284;20.890;2024-03-22T06:43:13;21.80;43.65
41142;SHT31;63666;52.284;20.890;2024-03-22T06:45:04;21.81;43.71
41142;SHT31;63666;52.284;20.890;2024-03-22T06:46:50;21.80;43.57
41142;SHT31;63666;52.284;20.890;2024-03-22T06:48:35;21.82;43.58
41142;SHT31;63666;52.284;20.890;2024-03-22T06:50:19;21.86;43.53
41142;SHT31;63666;52.284;20.890;2024-03-22T06:52:08;21.88;43.49
41142;SHT31;63666;52.284;20.890;2024-03-22T06:53:55;21.88;43.43
41142;SHT31;63666;52.284;20.890;2024-03-22T06:55:41;21.86;43.43
41142;SHT31;63666;52.284;20.890;2024-03-22T06:57:27;21.85;43.49
41142;SHT31;63666;52.284;20.890;2024-03-22T06:59:15;21.82;43.49
41142;SHT31;63666;52.284;20.890;2024-03-22T07:01:01;21.84;43.43
41142;SHT31;63666;52.284;20.890;2024-03-22T07:02:45;21.85;43.44
41142;SHT31;63666;52.284;20.890;2024-03-22T07:04:30;21.82;43.48
41142;SHT31;63666;52.284;20.890;2024-03-22T07:06:15;21.81;43.50
41142;SHT31;63666;52.284;20.890;2024-03-22T07:08:04;21.80;43.54
41142;SHT31;63666;52.284;20.890;2024-03-22T07:09:49;21.77;43.58
41142;SHT31;63666;52.284;20.890;2024-03-22T07:11:36;21.76;43.60
41142;SHT31;63666;52.284;20.890;2024-03-22T07:13:23;21.74;43.61
41142;SHT31;63666;52.284;20.890;2024-03-22T07:15:13;21.74;43.63
41142;SHT31;63666;52.284;20.890;2024-03-22T07:16:58;21.72;43.59
41142;SHT31;63666;52.284;20.890;2024-03-22T07:18:42;21.70;43.62
41142;SHT31;63666;52.284;20.890;2024-03-22T07:20:30;21.67;43.66
41142;SHT31;63666;52.284;20.890;2024-03-22T07:22:14;21.64;43.73
41142;SHT31;63666;52.284;20.890;2024-03-22T07:24:04;21.64;43.77
41142;SHT31;63666;52.284;20.890;2024-03-22T07:25:49;21.62;43.75
41142;SHT31;63666;52.284;20.890;2024-03-22T07:27:33;21.60;43.81
41142;SHT31;63666;52.284;20.890;2024-03-22T07:29:18;21.59;43.82
41142;SHT31;63666;52.284;20.890;2024-03-22T07:31:02;21.57;43.89
41142;SHT31;63666;52.284;20.890;2024-03-22T07:32:47;21.54;43.90
41142;SHT31;63666;52.284;20.890;2024-03-22T07:34:31;21.54;43.94
41142;SHT31;63666;52.284;20.890;2024-03-22T07:36:16;21.51;43.97
41142;SHT31;63666;52.284;20.890;2024-03-22T07:38:01;21.50;43.96
41142;SHT31;63666;52.284;20.890;2024-03-22T07:39:47;21.51;43.92
41142;SHT31;63666;52.284;20.890;2024-03-22T07:41:34;21.52;43.89
41142;SHT31;63666;52.284;20.890;2024-03-22T07:43:22;21.53;43.79
41142;SHT31;63666;52.284;20.890;2024-03-22T07:45:07;21.53;43.80
41142;SHT31;63666;52.284;20.890;2024-03-22T07:46:52;21.50;43.77
41142;SHT31;63666;52.284;20.890;2024-03-22T07:48:39;21.47;43.79
41142;SHT31;63666;52.284;20.890;2024-03-22T07:50:28;21.45;43.77
41142;SHT31;63666;52.284;20.890;2024-03-22T07:52:15;21.45;43.76
41142;SHT31;63666;52.284;20.890;2024-03-22T07:54:00;21.45;43.70
41142;SHT31;63666;52.284;20.890;2024-03-22T07:55:46;21.46;43.79
41142;SHT31;63666;52.284;20.890;2024-03-22T07:57:32;21.43;43.97
41142;SHT31;63666;52.284;20.890;2024-03-22T07:59:22;21.39;44.19
41142;SHT31;63666;52.284;20.890;2024-03-22T08:01:10;21.37;44.41
41142;SHT31;63666;52.284;20.890;2024-03-22T08:02:57;21.34;44.41
41142;SHT31;63666;52.284;20.890;2024-03-22T08:04:42;21.32;44.48
41142;SHT31;63666;52.284;20.890;2024-03-22T08:06:29;21.31;44.44
41142;SHT31;63666;52.284;20.890;2024-03-22T08:08:14;21.28;44.42
41142;SHT31;63666;52.284;20.890;2024-03-22T08:09:59;21.28;44.40
41142;SHT31;63666;52.284;20.890;2024-03-22T08:11:44;21.29;44.35
41142;SHT31;63666;52.284;20.890;2024-03-22T08:13:29;21.27;44.36
41142;SHT31;63666;52.284;20.890;2024-03-22T08:15:18;21.25;44.43
41142;SHT31;63666;52.284;20.890;2024-03-22T08:17:07;21.24;44.41
41142;SHT31;63666;52.284;20.890;2024-03-22T08:18:52;21.28;44.36
41142;SHT31;63666;52.284;20.890;2024-03-22T08:20:39;21.31;44.29
41142;SHT31;63666;52.284;20.890;2024-03-22T08:22:25;21.31;44.23
41142;SHT31;63666;52.284;20.890;2024-03-22T08:24:12;21.28;44.26
41142;SHT31;63666;52.284;20.890;2024-03-22T08:25:58;21.29;44.25
41142;SHT31;63666;52.284;20.890;2024-03-22T08:27:42;21.28;44.20
41142;SHT31;63666;52.284;20.890;2024-03-22T08:29:41;21.25;44.23
41142;SHT31;63666;52.284;20.890;2024-03-22T08:31:28;21.25;44.23
41142;SHT31;63666;52.284;20.890;2024-03-22T08:33:13;21.25;44.20
41142;SHT31;63666;52.284;20.890;2024-03-22T08:34:59;21.25;44.19
41142;SHT31;63666;52.284;20.890;2024-03-22T08:36:45;21.28;44.12
41142;SHT31;63666;52.284;20.890;2024-03-22T08:38:30;21.34;43.96
41142;SHT31;63666;52.284;20.890;2024-03-22T08:40:15;21.40;43.88
41142;SHT31;63666;52.284;20.890;2024-03-22T08:42:04;21.47;43.79
41142;SHT31;63666;52.284;20.890;2024-03-22T09:00:11;21.94;43.19
41142;SHT31;63666;52.284;20.890;2024-03-22T09:02:00;21.90;43.27
41142;SHT31;63666;52.284;20.890;2024-03-22T09:03:45;21.87;43.37
41142;SHT31;63666;52.284;20.890;2024-03-22T09:05:33;21.88;43.38
41142;SHT31;63666;52.284;20.890;2024-03-22T09:07:26;21.86;43.44
41142;SHT31;63666;52.284;20.890;2024-03-22T09:09:13;21.88;43.51
41142;SHT31;63666;52.284;20.890;2024-03-22T09:10:58;21.91;43.45
41142;SHT31;63666;52.284;20.890;2024-03-22T09:12:49;21.95;43.46
41142;SHT31;63666;52.284;20.890;2024-03-22T09:14:36;21.97;43.40
41142;SHT31;63666;52.284;20.890;2024-03-22T09:16:24;21.98;43.48
41142;SHT31;63666;52.284;20.890;2024-03-22T09:18:11;21.99;43.41
41142;SHT31;63666;52.284;20.890;2024-03-22T09:19:58;22.04;43.46
41142;SHT31;63666;52.284;20.890;2024-03-22T09:21:47;22.09;43.34
41142;SHT31;63666;52.284;20.890;2024-03-22T09:23:31;22.20;44.40
41142;SHT31;63666;52.284;20.890;2024-03-22T09:25:15;22.28;45.02
41142;SHT31;63666;52.284;20.890;2024-03-22T09:26:59;22.36;44.11
41142;SHT31;63666;52.284;20.890;2024-03-22T09:28:48;22.32;45.51
41142;SHT31;63666;52.284;20.890;2024-03-22T09:30:32;22.21;45.58
41142;SHT31;63666;52.284;20.890;2024-03-22T09:32:25;22.14;45.23
41142;SHT31;63666;52.284;20.890;2024-03-22T09:34:09;22.25;45.60
41142;SHT31;63666;52.284;20.890;2024-03-22T09:35:56;22.33;45.54
41142;SHT31;63666;52.284;20.890;2024-03-22T09:37:40;22.42;44.42
41142;SHT31;63666;52.284;20.890;2024-03-22T09:39:27;22.45;44.37
41142;SHT31;63666;52.284;20.890;2024-03-22T09:41:15;22.44;44.20
41142;SHT31;63666;52.284;20.890;2024-03-22T09:43:06;22.54;44.49
41142;SHT31;63666;52.284;20.890;2024-03-22T09:44:58;22.56;43.49
41142;SHT31;63666;52.284;20.890;2024-03-22T09:46:44;22.58;43.31
41142;SHT31;63666;52.284;20.890;2024-03-22T09:48:34;22.58;43.19
41142;SHT31;63666;52.284;20.890;2024-03-22T09:50:19;22.56;43.97
41142;SHT31;63666;52.284;20.890;2024-03-22T09:52:10;22.46;44.40
41142;SHT31;63666;52.284;20.890;2024-03-22T09:54:00;22.57;43.36
41142;SHT31;63666;52.284;20.890;2024-03-22T09:55:46;22.59;43.80
41142;SHT31;63666;52.284;20.890;2024-03-22T09:57:35;22.56;43.44
41142;SHT31;63666;52.284;20.890;2024-03-22T09:59:22;22.62;43.07
41142;SHT31;63666;52.284;20.890;2024-03-22T10:01:07;22.68;43.27
41142;SHT31;63666;52.284;20.890;2024-03-22T10:02:57;22.63;43.47
41142;SHT31;63666;52.284;20.890;2024-03-22T10:04:46;22.69;42.90
41142;SHT31;63666;52.284;20.890;2024-03-22T10:06:31;22.71;42.93
41142;SHT31;63666;52.284;20.890;2024-03-22T10:08:28;22.73;42.73
41142;SHT31;63666;52.284;20.890;2024-03-22T10:10:13;22.70;42.80
41142;SHT31;63666;52.284;20.890;2024-03-22T10:12:02;22.63;42.89
41142;SHT31;63666;52.284;20.890;2024-03-22T10:13:47;22.59;42.97
41142;SHT31;63666;52.284;20.890;2024-03-22T10:15:32;22.56;43.21
41142;SHT31;63666;52.284;20.890;2024-03-22T10:17:16;22.54;43.28
41142;SHT31;63666;52.284;20.890;2024-03-22T10:19:01;22.52;43.27
41142;SHT31;63666;52.284;20.890;2024-03-22T10:20:46;22.42;43.05
41142;SHT31;63666;52.284;20.890;2024-03-22T10:22:47;22.33;43.61
41142;SHT31;63666;52.284;20.890;2024-03-22T10:24:39;22.39;43.91
41142;SHT31;63666;52.284;20.890;2024-03-22T10:26:23;22.42;43.58
41142;SHT31;63666;52.284;20.890;2024-03-22T10:28:08;22.43;43.41
41142;SHT31;63666;52.284;20.890;2024-03-22T10:29:53;22.45;43.32
41142;SHT31;63666;52.284;20.890;2024-03-22T10:31:38;22.48;43.24
41142;SHT31;63666;52.284;20.890;2024-03-22T10:33:27;22.56;43.27
41142;SHT31;63666;52.284;20.890;2024-03-22T10:35:15;22.59;43.03
41142;SHT31;63666;52.284;20.890;2024-03-22T10:37:03;22.58;43.09
41142;SHT31;63666;52.284;20.890;2024-03-22T10:38:48;22.58;43.25
41142;SHT31;63666;52.284;20.890;2024-03-22T10:40:35;22.57;43.13
41142;SHT31;63666;52.284;20.890;2024-03-22T10:42:20;22.58;43.13
41142;SHT31;63666;52.284;20.890;2024-03-22T10:44:05;22.53;43.23
41142;SHT31;63666;52.284;20.890;2024-03-22T10:45:50;22.49;43.32
41142;SHT31;63666;52.284;20.890;2024-03-22T10:47:44;22.51;43.40
41142;SHT31;63666;52.284;20.890;2024-03-22T10:49:29;22.50;43.40
41142;SHT31;63666;52.284;20.890;2024-03-22T10:51:22;22.47;43.47
41142;SHT31;63666;52.284;20.890;2024-03-22T10:53:08;22.47;43.45
41142;SHT31;63666;52.284;20.890;2024-03-22T10:55:02;22.44;43.67
41142;SHT31;63666;52.284;20.890;2024-03-22T10:56:54;22.39;43.59
41142;SHT31;63666;52.284;20.890;2024-03-22T10:58:40;22.38;43.76
41142;SHT31;63666;52.284;20.890;2024-03-22T11:00:31;22.45;43.63
41142;SHT31;63666;52.284;20.890;2024-03-22T11:02:17;22.46;43.41
41142;SHT31;63666;52.284;20.890;2024-03-22T11:04:06;22.35;43.68
41142;SHT31;63666;52.284;20.890;2024-03-22T11:05:57;22.27;43.54
41142;SHT31;63666;52.284;20.890;2024-03-22T11:07:43;22.36;44.38
41142;SHT31;63666;52.284;20.890;2024-03-22T11:09:39;22.45;43.69
41142;SHT31;63666;52.284;20.890;2024-03-22T11:11:23;22.48;43.62
41142;SHT31;63666;52.284;20.890;2024-03-22T11:13:12;22.54;43.21
41142;SHT31;63666;52.284;20.890;2024-03-22T11:15:00;22.54;43.04
41142;SHT31;63666;52.284;20.890;2024-03-22T11:16:46;22.52;42.93
41142;SHT31;63666;52.284;20.890;2024-03-22T11:18:31;22.53;42.81
41142;SHT31;63666;52.284;20.890;2024-03-22T11:20:19;22.54;42.73
41142;SHT31;63666;52.284;20.890;2024-03-22T11:22:06;22.42;42.90